Time;durP1;ratioP1;P1;durP2;ratioP2;P2;SDS_P1;SDS_P2;PMS_P1;PMS_P2;Temp;Humidity;BMP_temperature;BMP_pressure;BME280_temperature;BME280_humidity;BME280_pressure;Samples;Min_cycle;Max_cycle;Signal;HPM_P1;HPM_P2
2023/07/02 00:00:12;;;;;;;12.30;9.00;;;;;;;26.50;53.18;99222.97;5012176;28;20518;-66
2023/07/02 00:02:40;;;;;;;11.48;7.95;;;;;;;26.48;53.33;99220.47;5012435;28;20060;-66
2023/07/02 00:05:08;;;;;;;13.63;9.35;;;;;;;26.48;53.12;99215.00;5012409;28;20052;-66
2023/07/02 00:07:37;;;;;;;12.48;9.20;;;;;;;26.48;53.37;99225.09;5012139;28;20046;-66
2023/07/02 00:10:07;;;;;;;14.38;9.40;;;;;;;26.47;53.32;99223.41;5012542;28;20053;-66
2023/07/02 00:12:35;;;;;;;11.00;8.05;;;;;;;26.47;53.60;99223.41;5011903;28;20050;-66
2023/07/02 00:15:05;;;;;;;13.38;8.88;;;;;;;26.46;53.09;99217.13;5012083;28;20046;-66
2023/07/02 00:17:33;;;;;;;12.13;9.32;;;;;;;26.47;53.13;99216.06;5011949;28;20094;-65
2023/07/02 00:20:08;;;;;;;13.07;9.50;;;;;;;26.48;53.71;99219.63;5011828;28;20050;-66
2023/07/02 00:22:36;;;;;;;12.85;9.73;;;;;;;26.44;53.64;99213.78;5011897;28;20149;-66
2023/07/02 00:25:05;;;;;;;12.23;8.52;;;;;;;26.43;53.57;99216.69;5011837;28;20052;-66
2023/07/02 00:27:34;;;;;;;12.55;8.38;;;;;;;26.41;53.32;99218.81;5011947;28;20487;-65
2023/07/02 00:30:03;;;;;;;11.52;9.02;;;;;;;26.39;53.45;99216.31;5012048;28;20104;-64
2023/07/02 00:32:31;;;;;;;13.88;9.43;;;;;;;26.39;53.50;99216.31;5011762;28;20050;-66
2023/07/02 00:34:59;;;;;;;11.30;8.30;;;;;;;26.40;52.91;99217.16;5011554;28;20111;-66
2023/07/02 00:37:27;;;;;;;13.35;8.77;;;;;;;26.39;53.23;99221.78;5011998;28;20053;-65
2023/07/02 00:39:55;;;;;;;12.57;8.50;;;;;;;26.38;53.41;99216.53;5011669;28;20049;-66
2023/07/02 00:42:26;;;;;;;11.88;8.90;;;;;;;26.37;53.09;99212.97;5011648;28;20045;-66
2023/07/02 00:44:56;;;;;;;11.90;8.80;;;;;;;26.38;52.90;99214.63;5011578;28;20426;-66
2023/07/02 00:47:25;;;;;;;12.85;9.05;;;;;;;26.31;53.09;99207.50;5011537;28;20138;-64
2023/07/02 00:49:56;;;;;;;14.20;9.77;;;;;;;26.28;53.02;99213.41;5011858;28;20062;-65
2023/07/02 00:52:25;;;;;;;11.52;8.32;;;;;;;26.28;53.26;99213.41;5011436;28;20057;-67
2023/07/02 00:54:54;;;;;;;12.60;9.20;;;;;;;26.28;53.24;99207.94;5011499;28;20042;-65
2023/07/02 00:57:22;;;;;;;12.40;9.00;;;;;;;26.27;52.91;99207.09;5011616;28;20049;-65
2023/07/02 00:59:51;;;;;;;12.02;9.20;;;;;;;26.20;53.49;99207.13;5011464;28;20057;-66
2023/07/02 01:02:21;;;;;;;11.48;8.80;;;;;;;26.10;53.77;99212.22;5012006;28;20057;-64
2023/07/02 01:04:52;;;;;;;15.35;8.75;;;;;;;26.06;53.33;99211.00;5011579;28;20050;-66
2023/07/02 01:07:20;;;;;;;12.63;8.77;;;;;;;26.02;53.58;99212.47;5011621;28;20133;-66
2023/07/02 01:09:48;;;;;;;14.43;9.43;;;;;;;25.96;54.11;99213.34;5011299;28;20077;-66
2023/07/02 01:12:21;;;;;;;14.90;9.18;;;;;;;25.92;53.84;99220.28;5011397;28;20355;-66
2023/07/02 01:14:54;;;;;;;12.40;8.77;;;;;;;25.92;53.85;99223.03;5011791;28;20050;-66
2023/07/02 01:17:24;;;;;;;11.45;8.32;;;;;;;25.92;53.43;99214.84;5011578;28;20068;-65
2023/07/02 01:19:58;;;;;;;11.93;8.15;;;;;;;25.91;53.85;99221.34;5011274;28;20049;-66
2023/07/02 01:22:30;;;;;;;13.60;8.52;;;;;;;25.92;54.00;99220.28;5011427;28;20607;-66
2023/07/02 01:24:58;;;;;;;12.63;7.82;;;;;;;25.94;53.67;99219.00;5011129;28;20042;-66
2023/07/02 01:27:29;;;;;;;12.73;8.50;;;;;;;25.99;53.35;99218.38;5011303;28;20141;-66
2023/07/02 01:29:57;;;;;;;12.20;8.73;;;;;;;25.98;53.41;99218.59;5010997;28;20104;-66
2023/07/02 01:32:26;;;;;;;11.98;8.52;;;;;;;25.96;53.12;99216.94;5011097;28;20052;-66
2023/07/02 01:34:55;;;;;;;11.75;8.40;;;;;;;25.94;53.58;99215.44;5011125;28;20054;-66
2023/07/02 01:37:23;;;;;;;12.77;8.30;;;;;;;25.91;53.38;99218.63;5011037;28;20566;-66
2023/07/02 01:39:52;;;;;;;10.90;8.20;;;;;;;25.91;53.78;99221.34;5011078;28;20143;-66
2023/07/02 01:42:20;;;;;;;10.05;7.88;;;;;;;25.89;53.47;99218.84;5011239;28;20104;-66
2023/07/02 01:44:51;;;;;;;10.35;7.70;;;;;;;25.90;53.30;99216.94;5011028;28;20050;-65
2023/07/02 01:47:19;;;;;;;10.27;7.90;;;;;;;25.90;53.43;99214.22;5010914;28;20060;-65
2023/07/02 01:49:48;;;;;;;10.85;8.00;;;;;;;25.87;53.25;99228.31;5010808;28;20475;-67
2023/07/02 01:52:18;;;;;;;11.63;8.18;;;;;;;25.87;53.29;99225.59;5010596;28;20380;-66
2023/07/02 01:54:47;;;;;;;11.02;7.72;;;;;;;25.87;53.35;99220.13;5010994;28;20089;-66
2023/07/02 01:57:15;;;;;;;11.02;8.00;;;;;;;25.84;53.64;99210.44;5010926;28;20136;-66
2023/07/02 01:59:43;;;;;;;11.70;8.00;;;;;;;25.80;52.86;99217.41;5010995;28;20061;-65
2023/07/02 02:02:12;;;;;;;11.35;7.57;;;;;;;25.80;52.92;99211.09;5011008;28;20053;-66
2023/07/02 02:04:40;;;;;;;10.25;7.40;;;;;;;25.81;53.19;99215.50;5010825;28;20056;-66
2023/07/02 02:07:08;;;;;;;10.75;7.93;;;;;;;25.80;53.22;99228.34;5013812;28;20129;-66
2023/07/02 02:09:38;;;;;;;11.25;7.35;;;;;;;25.80;52.98;99222.88;5014679;28;20050;-66
2023/07/02 02:12:06;;;;;;;11.48;8.05;;;;;;;25.75;53.05;99214.47;5014553;28;20127;-66
2023/07/02 02:14:35;;;;;;;14.25;7.60;;;;;;;25.72;53.21;99214.06;4997283;28;20053;-66
2023/07/02 02:17:03;;;;;;;12.48;7.03;;;;;;;25.69;52.95;99213.41;5014491;28;20045;-66
2023/07/02 02:19:31;;;;;;;10.98;7.13;;;;;;;25.66;53.09;99205.63;5014166;28;20069;-66
2023/07/02 02:21:59;;;;;;;11.00;7.50;;;;;;;25.67;52.99;99207.34;5014467;28;20046;-66
2023/07/02 02:24:28;;;;;;;10.40;7.47;;;;;;;25.67;53.22;99210.06;5014125;28;20042;-66
2023/07/02 02:26:57;;;;;;;9.90;7.20;;;;;;;25.68;52.76;99209.03;5014353;28;20446;-66
2023/07/02 02:29:26;;;;;;;11.50;7.53;;;;;;;25.69;52.87;99209.84;5014029;28;20072;-67
2023/07/02 02:31:54;;;;;;;11.55;7.68;;;;;;;25.68;52.91;99203.56;5013894;28;20479;-66
2023/07/02 02:34:22;;;;;;;10.90;7.07;;;;;;;25.71;53.00;99204.19;5014293;28;20061;-66
2023/07/02 02:36:50;;;;;;;10.10;7.80;;;;;;;25.67;53.01;99196.41;5014316;28;20129;-66
2023/07/02 02:39:18;;;;;;;10.70;7.47;;;;;;;25.64;52.99;99207.75;5013957;28;20050;-66
2023/07/02 02:41:46;;;;;;;10.52;7.70;;;;;;;25.57;53.19;99201.47;5014099;28;20052;-66
2023/07/02 02:44:16;;;;;;;10.40;7.40;;;;;;;25.58;52.96;99197.72;5013774;28;20088;-66
2023/07/02 02:46:45;;;;;;;8.63;6.53;;;;;;;25.58;53.24;99197.72;5014133;28;20049;-67
2023/07/02 02:49:13;;;;;;;9.48;6.88;;;;;;;25.59;53.16;99201.28;5013920;28;20054;-66
2023/07/02 02:51:41;;;;;;;11.25;6.55;;;;;;;25.57;52.91;99201.47;5013690;28;20061;-66
2023/07/02 02:54:10;;;;;;;9.40;6.65;;;;;;;25.59;52.82;99195.81;5013697;28;20549;-66
2023/07/02 02:56:39;;;;;;;10.68;7.35;;;;;;;25.61;53.18;99199.16;5013662;28;20147;-65
2023/07/02 02:59:07;;;;;;;11.25;7.10;;;;;;;25.60;53.08;99195.59;5013498;28;20054;-65
2023/07/02 03:01:36;;;;;;;12.02;6.45;;;;;;;25.62;52.87;99198.09;5013772;28;20050;-66
2023/07/02 03:04:05;;;;;;;9.40;6.50;;;;;;;25.59;52.55;99193.91;5013655;28;20046;-65
2023/07/02 03:06:33;;;;;;;10.32;6.28;;;;;;;25.58;52.47;99197.72;5014026;28;20115;-66
2023/07/02 03:09:02;;;;;;;10.25;7.13;;;;;;;25.58;52.73;99203.16;5013474;28;20046;-66
2023/07/02 03:11:30;;;;;;;11.52;6.45;;;;;;;25.57;52.57;99200.63;5013374;28;20050;-64
2023/07/02 03:13:58;;;;;;;9.55;6.18;;;;;;;25.57;52.37;99198.72;5013779;28;20042;-66
2023/07/02 03:16:26;;;;;;;9.13;6.03;;;;;;;25.57;52.51;99201.47;5013083;28;20088;-64
2023/07/02 03:18:56;;;;;;;9.55;6.07;;;;;;;25.56;52.26;99202.53;5013643;28;20050;-66
2023/07/02 03:21:24;;;;;;;9.35;6.43;;;;;;;25.56;52.48;99204.41;5013608;28;20055;-65
2023/07/02 03:23:52;;;;;;;10.25;6.43;;;;;;;25.55;52.44;99203.56;5013327;28;20510;-66
2023/07/02 03:26:21;;;;;;;9.13;6.35;;;;;;;25.53;52.40;99197.50;5013342;28;20049;-65
2023/07/02 03:28:49;;;;;;;10.38;6.32;;;;;;;25.55;52.11;99209.03;5013489;28;20046;-66
2023/07/02 03:31:17;;;;;;;8.80;5.90;;;;;;;25.51;52.02;99201.50;5013117;28;20048;-66
2023/07/02 03:33:46;;;;;;;8.80;6.00;;;;;;;25.50;52.32;99203.41;5012911;28;20561;-66
2023/07/02 03:36:15;;;;;;;8.98;5.90;;;;;;;25.49;52.05;99207.19;5020732;28;20037;-66
2023/07/02 03:38:44;;;;;;;8.20;5.60;;;;;;;25.49;52.33;99209.91;5032738;28;20387;-66
2023/07/02 03:41:12;;;;;;;8.73;5.85;;;;;;;25.48;51.89;99216.44;5032792;28;20053;-66
2023/07/02 03:43:40;;;;;;;9.73;5.45;;;;;;;25.49;52.00;99212.66;5032890;28;20049;-66
2023/07/02 03:46:08;;;;;;;8.95;5.68;;;;;;;25.51;52.13;99217.88;5032789;28;20133;-66
2023/07/02 03:48:36;;;;;;;9.82;5.55;;;;;;;25.46;52.03;99215.78;5032534;28;20416;-66
2023/07/02 03:51:05;;;;;;;9.68;5.80;;;;;;;25.45;51.90;99219.56;5032289;28;20508;-65
2023/07/02 03:53:34;;;;;;;9.52;5.63;;;;;;;25.44;52.19;99228.81;5032196;28;20050;-66
2023/07/02 03:56:03;;;;;;;7.43;5.13;;;;;;;25.43;52.01;99227.13;5032617;28;20375;-65
2023/07/02 03:58:31;;;;;;;10.18;5.63;;;;;;;25.42;52.08;99222.72;5032330;28;20049;-66
2023/07/02 04:00:59;;;;;;;8.52;6.07;;;;;;;25.40;51.85;99222.09;5032331;28;20085;-66
2023/07/02 04:03:27;;;;;;;7.55;5.20;;;;;;;25.40;51.94;99217.50;5032250;28;20487;-66
2023/07/02 04:05:55;;;;;;;8.40;5.80;;;;;;;25.40;51.66;99224.84;5032061;28;20136;-66
2023/07/02 04:08:24;;;;;;;8.27;5.63;;;;;;;25.41;51.87;99221.06;5032248;28;20049;-66
2023/07/02 04:10:54;;;;;;;8.05;5.40;;;;;;;25.40;52.08;99225.69;5032249;28;20045;-66
2023/07/02 04:13:22;;;;;;;7.45;5.10;;;;;;;25.36;52.07;99226.28;5032081;28;20120;-65
2023/07/02 04:15:50;;;;;;;7.63;5.15;;;;;;;25.35;51.99;99230.09;5032054;28;20051;-66
2023/07/02 04:18:19;;;;;;;9.27;5.80;;;;;;;25.33;52.00;99232.19;5032011;28;20057;-66
2023/07/02 04:20:47;;;;;;;8.93;5.55;;;;;;;25.33;51.88;99232.19;5032235;28;20847;-66
2023/07/02 04:23:16;;;;;;;8.63;5.50;;;;;;;25.27;52.05;99233.88;5032065;28;20063;-66
2023/07/02 04:25:44;;;;;;;8.32;5.47;;;;;;;25.28;52.19;99240.16;5032107;28;20072;-66
2023/07/02 04:28:34;;;;;;;7.95;5.40;;;;;;;25.26;51.72;99236.81;5031090;28;20055;-66
2023/07/02 04:31:02;;;;;;;9.27;5.63;;;;;;;25.22;52.01;99243.75;5031821;28;20141;-66
2023/07/02 04:33:35;;;;;;;8.13;5.47;;;;;;;25.20;52.22;99241.25;5032000;28;20128;-66
2023/07/02 04:36:04;;;;;;;7.85;5.25;;;;;;;25.15;52.06;99245.63;5031769;28;20049;-64
2023/07/02 04:38:32;;;;;;;9.35;5.15;;;;;;;25.06;52.19;99248.56;5031806;28;20088;-66
2023/07/02 04:41:05;;;;;;;7.85;5.07;;;;;;;25.04;52.35;99247.94;5031637;28;20081;-66
2023/07/02 04:43:35;;;;;;;8.27;5.00;;;;;;;25.06;52.24;99247.75;5031999;28;20045;-65
2023/07/02 04:46:07;;;;;;;7.57;4.93;;;;;;;25.06;52.30;99242.28;5031543;28;20486;-66
2023/07/02 04:48:36;;;;;;;9.35;5.03;;;;;;;25.09;52.15;99248.19;5031606;28;20042;-66
2023/07/02 04:51:04;;;;;;;7.82;5.22;;;;;;;25.10;52.22;99257.19;5031350;28;20041;-66
2023/07/02 04:53:32;;;;;;;7.55;4.80;;;;;;;25.09;52.27;99253.63;5031515;28;20077;-66
2023/07/02 04:56:01;;;;;;;7.20;5.03;;;;;;;25.12;52.08;99260.56;5031362;28;20140;-65
2023/07/02 04:58:29;;;;;;;7.03;4.70;;;;;;;25.15;52.10;99260.13;5031601;28;20195;-66
2023/07/02 05:00:58;;;;;;;7.32;5.15;;;;;;;25.17;52.20;99270.81;5031147;28;20049;-64
2023/07/02 05:03:27;;;;;;;7.57;5.10;;;;;;;25.19;52.36;99261.41;5031410;28;20045;-65
2023/07/02 05:05:56;;;;;;;8.43;5.03;;;;;;;25.19;52.09;99265.97;5031338;28;20051;-65
2023/07/02 05:08:24;;;;;;;7.95;4.80;;;;;;;25.19;51.77;99269.59;5031304;28;20045;-65
2023/07/02 05:10:52;;;;;;;7.25;5.07;;;;;;;25.20;52.05;99267.69;5031041;28;20413;-65
2023/07/02 05:13:20;;;;;;;7.80;4.85;;;;;;;25.22;51.85;99273.78;5031283;28;20073;-65
2023/07/02 05:15:48;;;;;;;6.65;4.50;;;;;;;25.24;52.12;99274.41;5031489;28;20054;-66
2023/07/02 05:18:18;;;;;;;6.82;4.50;;;;;;;25.26;51.83;99275.00;5031227;28;20141;-66
2023/07/02 05:20:46;;;;;;;7.00;4.63;;;;;;;25.26;51.74;99280.47;5031133;28;20163;-65
2023/07/02 05:23:17;;;;;;;8.07;5.07;;;;;;;25.26;51.85;99285.94;5031080;28;20046;-65
2023/07/02 05:25:45;;;;;;;6.60;4.30;;;;;;;25.27;51.54;99282.16;5031360;28;20133;-65
2023/07/02 05:28:14;;;;;;;9.48;4.80;;;;;;;25.30;51.88;99287.22;5031060;28;20137;-65
2023/07/02 05:30:42;;;;;;;8.75;5.43;;;;;;;25.32;51.72;99282.38;5031164;28;20064;-65
2023/07/02 05:33:10;;;;;;;6.47;4.50;;;;;;;25.31;51.60;99291.63;5030985;28;20045;-65
2023/07/02 05:35:40;;;;;;;7.97;4.88;;;;;;;25.32;51.79;99290.56;5030938;28;20474;-66
2023/07/02 05:38:08;;;;;;;8.88;4.53;;;;;;;25.30;51.55;99285.31;5031320;28;20045;-65
2023/07/02 05:40:36;;;;;;;8.15;4.97;;;;;;;25.27;51.79;99293.06;5032935;28;20561;-65
2023/07/02 05:43:04;;;;;;;8.68;5.15;;;;;;;25.24;51.40;99293.50;5035030;28;20049;-66
2023/07/02 05:45:34;;;;;;;6.82;4.35;;;;;;;25.19;51.79;99301.47;5035267;28;20050;-66
2023/07/02 05:48:02;;;;;;;8.15;4.85;;;;;;;25.16;51.41;99299.16;5034935;28;20098;-66
2023/07/02 05:50:31;;;;;;;8.55;4.68;;;;;;;25.15;51.66;99308.41;5034733;28;20096;-64
2023/07/02 05:53:00;;;;;;;6.32;4.25;;;;;;;25.15;51.77;99311.13;5034708;28;20420;-66
2023/07/02 05:55:29;;;;;;;9.15;4.53;;;;;;;25.14;51.73;99299.38;5034945;28;20049;-65
2023/07/02 05:58:01;;;;;;;8.00;4.90;;;;;;;25.14;52.01;99304.81;5034855;28;20072;-66
2023/07/02 06:00:29;;;;;;;9.52;4.90;;;;;;;25.14;51.87;99304.00;5034542;28;20132;-66
2023/07/02 06:02:57;;;;;;;7.88;4.90;;;;;;;25.11;52.09;99321.63;5034419;28;20443;-65
2023/07/02 06:05:26;;;;;;;7.57;4.57;;;;;;;25.09;52.08;99319.13;5034668;28;20067;-65
2023/07/02 06:07:54;;;;;;;7.32;4.45;;;;;;;25.06;52.09;99311.31;5034628;28;20076;-65
2023/07/02 06:10:23;;;;;;;8.60;4.90;;;;;;;25.05;52.34;99309.66;5034465;28;20077;-65
2023/07/02 06:12:54;;;;;;;6.95;4.63;;;;;;;25.04;52.26;99309.84;5034299;28;20105;-65
2023/07/02 06:15:22;;;;;;;8.52;4.75;;;;;;;25.05;52.03;99317.00;5034261;28;20057;-66
2023/07/02 06:17:50;;;;;;;6.72;4.50;;;;;;;25.02;52.19;99315.53;5034209;28;20107;-66
2023/07/02 06:20:18;;;;;;;7.28;4.78;;;;;;;25.00;52.11;99314.88;5034322;28;20435;-66
2023/07/02 06:22:47;;;;;;;6.50;4.32;;;;;;;24.98;52.19;99316.09;5034176;28;20056;-66
2023/07/02 06:25:15;;;;;;;7.10;4.50;;;;;;;25.01;52.23;99318.44;5034194;28;20101;-65
2023/07/02 06:27:44;;;;;;;6.15;4.03;;;;;;;25.06;52.32;99315.94;5034145;28;20502;-65
2023/07/02 06:30:12;;;;;;;7.72;4.80;;;;;;;25.07;52.45;99317.63;5033954;28;20136;-66
2023/07/02 06:32:41;;;;;;;7.90;5.28;;;;;;;25.10;52.36;99331.69;5034035;28;20120;-66
2023/07/02 06:35:09;;;;;;;8.10;4.97;;;;;;;25.11;52.37;99324.34;5033867;28;20541;-65
2023/07/02 06:37:38;;;;;;;9.27;5.03;;;;;;;25.14;52.04;99325.81;5033170;28;20041;-63
2023/07/02 06:40:08;;;;;;;6.88;4.68;;;;;;;25.15;51.97;99319.31;5033768;28;20128;-66
2023/07/02 06:42:37;;;;;;;8.43;4.95;;;;;;;25.17;52.11;99330.84;5033631;28;20132;-64
2023/07/02 06:45:08;;;;;;;7.85;4.40;;;;;;;25.20;52.13;99319.53;5033964;28;20120;-65
2023/07/02 06:47:36;;;;;;;6.72;4.85;;;;;;;25.23;52.09;99324.56;5033862;28;20100;-68
2023/07/02 06:50:05;;;;;;;10.05;5.15;;;;;;;25.26;52.01;99326.88;5035090;28;20064;-64
2023/07/02 06:52:33;;;;;;;7.00;4.60;;;;;;;25.28;52.23;99322.03;5032627;28;20053;-65
2023/07/02 06:55:01;;;;;;;8.18;4.63;;;;;;;25.30;52.22;99326.25;5033596;28;20051;-66
2023/07/02 06:57:29;;;;;;;9.98;4.88;;;;;;;25.29;51.97;99323.75;5033496;28;20057;-65
2023/07/02 06:59:59;;;;;;;8.35;4.68;;;;;;;25.29;51.94;99329.19;5033757;28;20053;-66
2023/07/02 07:02:29;;;;;;;8.18;4.93;;;;;;;25.28;51.83;99338.41;5033621;28;20057;-66
2023/07/02 07:04:57;;;;;;;7.30;4.40;;;;;;;25.28;52.17;99330.22;5033297;28;20517;-65
2023/07/02 07:07:25;;;;;;;6.65;4.38;;;;;;;25.34;52.48;99337.59;5033223;28;20483;-67
2023/07/02 07:09:54;;;;;;;9.48;4.70;;;;;;;25.37;51.84;99342.63;5033164;28;20054;-64
2023/07/02 07:12:22;;;;;;;6.88;4.25;;;;;;;25.38;51.78;99344.28;5033576;28;20047;-66
2023/07/02 07:14:50;;;;;;;6.65;4.50;;;;;;;25.39;51.51;99337.81;5033374;28;20045;-65
2023/07/02 07:17:18;;;;;;;6.90;4.28;;;;;;;25.38;51.12;99339.69;5033348;28;20061;-65
2023/07/02 07:19:48;;;;;;;7.35;4.40;;;;;;;25.38;51.24;99338.81;5033528;28;20096;-65
2023/07/02 07:22:16;;;;;;;5.97;4.18;;;;;;;25.39;51.07;99351.47;5030617;28;20045;-65
2023/07/02 07:24:44;;;;;;;6.85;4.43;;;;;;;25.42;51.58;99348.28;5033255;28;20049;-65
2023/07/02 07:27:12;;;;;;;7.10;4.20;;;;;;;25.45;51.42;99336.94;5033158;28;20045;-66
2023/07/02 07:29:40;;;;;;;7.30;4.70;;;;;;;25.46;51.08;99340.50;5033283;28;20049;-66
2023/07/02 07:32:09;;;;;;;7.85;4.78;;;;;;;25.50;51.73;99342.63;5033146;28;20084;-64
2023/07/02 07:34:37;;;;;;;8.13;4.80;;;;;;;25.52;52.08;99343.25;5033058;28;20505;-66
2023/07/02 07:37:06;;;;;;;7.97;4.40;;;;;;;25.52;51.26;99345.97;5032771;28;20053;-66
2023/07/02 07:39:36;;;;;;;6.55;4.30;;;;;;;25.55;51.84;99353.75;5032729;28;20045;-66
2023/07/02 07:42:04;;;;;;;8.40;4.47;;;;;;;25.57;52.13;99346.16;5032684;28;20049;-66
2023/07/02 07:44:33;;;;;;;8.00;4.57;;;;;;;25.60;51.69;99351.22;5032666;28;20052;-64
2023/07/02 07:47:01;;;;;;;6.82;4.05;;;;;;;25.63;51.51;99348.06;5032764;28;20041;-66
2023/07/02 07:49:29;;;;;;;6.97;4.88;;;;;;;25.64;51.20;99348.91;5031462;28;20054;-66
2023/07/02 07:51:57;;;;;;;7.40;4.20;;;;;;;25.61;50.73;99350.19;5030478;28;20505;-66
2023/07/02 07:54:27;;;;;;;5.78;3.65;;;;;;;25.61;50.37;99354.81;5031192;28;20136;-66
2023/07/02 07:56:55;;;;;;;6.05;4.30;;;;;;;25.61;50.37;99350.19;5031658;28;20049;-65
2023/07/02 07:59:23;;;;;;;7.35;4.35;;;;;;;25.63;50.42;99355.44;5031748;28;20054;-66
2023/07/02 08:01:51;;;;;;;6.25;4.38;;;;;;;25.64;50.60;99349.75;5031744;28;20100;-67
2023/07/02 08:04:19;;;;;;;6.45;4.35;;;;;;;25.68;50.91;99353.75;5031643;28;20380;-65
2023/07/02 08:06:47;;;;;;;7.70;4.18;;;;;;;25.73;50.68;99357.75;5032019;28;20141;-65
2023/07/02 08:09:15;;;;;;;7.82;4.47;;;;;;;25.74;50.17;99365.75;5032369;28;20073;-66
2023/07/02 08:11:45;;;;;;;6.20;4.10;;;;;;;25.77;50.29;99361.72;5032247;28;20124;-64
2023/07/02 08:14:14;;;;;;;8.10;3.88;;;;;;;25.79;49.73;99373.31;5032191;28;20053;-60
2023/07/02 08:16:42;;;;;;;7.85;4.50;;;;;;;25.79;49.79;99384.25;5032105;28;20041;-65
2023/07/02 08:19:10;;;;;;;7.13;4.20;;;;;;;25.88;49.60;99377.50;5032071;28;20075;-63
2023/07/02 08:21:38;;;;;;;7.88;3.55;;;;;;;25.96;49.58;99374.53;5032154;28;20045;-64
2023/07/02 08:24:07;;;;;;;11.07;4.30;;;;;;;26.12;49.35;99376.81;5031693;28;20482;-66
2023/07/02 08:26:35;;;;;;;9.75;3.75;;;;;;;26.14;49.54;99374.69;5031865;28;20482;-64
2023/07/02 08:29:04;;;;;;;7.05;4.22;;;;;;;26.13;49.42;99383.94;5031841;28;20249;-65
2023/07/02 08:31:32;;;;;;;8.60;4.05;;;;;;;26.12;49.82;99385.00;5031746;28;20144;-66
2023/07/02 08:34:00;;;;;;;7.13;3.70;;;;;;;26.09;49.49;99379.97;5031802;28;20550;-66
2023/07/02 08:36:29;;;;;;;9.00;4.28;;;;;;;26.08;49.85;99389.22;5032005;28;20054;-66
2023/07/02 08:38:57;;;;;;;6.25;3.97;;;;;;;26.09;49.87;99390.06;5031627;28;20049;-66
2023/07/02 08:41:25;;;;;;;6.30;3.70;;;;;;;26.06;49.36;99399.53;5031694;28;20041;-65
2023/07/02 08:43:56;;;;;;;7.53;3.63;;;;;;;26.04;49.52;99390.69;5031538;28;20119;-64
2023/07/02 08:46:26;;;;;;;6.22;4.03;;;;;;;26.04;49.02;99398.06;5031763;28;20464;-65
2023/07/02 08:48:54;;;;;;;5.97;3.85;;;;;;;26.02;48.67;99403.75;5031731;28;20049;-61
2023/07/02 08:51:22;;;;;;;7.45;3.53;;;;;;;25.96;48.91;99401.84;5031400;28;20118;-64
2023/07/02 08:53:50;;;;;;;5.05;3.20;;;;;;;25.96;49.03;99401.84;5027098;28;20049;-62
2023/07/02 08:56:19;;;;;;;6.60;3.58;;;;;;;26.00;48.83;99405.84;5031289;28;20045;-62
2023/07/02 08:58:47;;;;;;;7.20;3.55;;;;;;;26.01;48.37;99409.41;5031161;28;20561;-63
2023/07/02 09:01:17;;;;;;;5.75;3.58;;;;;;;25.99;48.67;99420.56;5018223;28;20048;-64
2023/07/02 09:03:47;;;;;;;5.63;3.50;;;;;;;26.00;48.09;99424.13;5026713;28;20065;-65
2023/07/02 09:06:18;;;;;;;6.43;3.53;;;;;;;26.00;48.28;99424.13;5012207;28;20046;-64
2023/07/02 09:08:46;;;;;;;8.93;3.65;;;;;;;26.00;47.74;99419.50;5011771;28;20446;-63
2023/07/02 09:11:17;;;;;;;9.20;3.90;;;;;;;25.98;47.42;99418.88;5011714;28;20406;-64
2023/07/02 09:13:47;;;;;;;8.07;4.15;;;;;;;26.00;47.04;99424.97;5011388;28;20112;-63
2023/07/02 09:16:23;;;;;;;5.93;3.92;;;;;;;26.01;47.27;99423.09;5011072;28;20505;-63
2023/07/02 09:19:03;;;;;;;10.05;4.30;;;;;;;26.00;47.59;99416.78;5011171;28;20479;-63
2023/07/02 09:21:45;;;;;;;7.88;3.90;;;;;;;26.03;47.50;99424.53;5011405;28;20141;-66
2023/07/02 09:24:18;;;;;;;7.33;3.77;;;;;;;26.05;47.46;99416.97;5017406;28;20586;-62
2023/07/02 09:26:49;;;;;;;6.18;3.90;;;;;;;26.05;47.79;99418.84;5031345;28;20281;-61
2023/07/02 09:29:19;;;;;;;8.95;4.50;;;;;;;26.07;48.02;99416.78;5031135;28;20060;-62
2023/07/02 09:31:48;;;;;;;5.63;4.10;;;;;;;26.08;48.00;99413.84;5031061;28;20050;-62
2023/07/02 09:34:40;;;;;;;8.35;4.50;;;;;;;26.08;47.30;99405.63;5031079;28;20085;-62
2023/07/02 09:37:08;;;;;;;7.00;4.05;;;;;;;26.10;47.76;99408.16;5031134;28;20072;-62
2023/07/02 09:39:38;;;;;;;6.68;4.75;;;;;;;26.11;47.82;99410.66;5031316;28;20099;-63
2023/07/02 09:42:07;;;;;;;7.10;4.35;;;;;;;26.12;47.55;99409.59;5030945;28;20061;-61
2023/07/02 09:44:36;;;;;;;8.80;4.28;;;;;;;26.14;47.69;99407.50;5025881;28;20057;-64
2023/07/02 09:47:06;;;;;;;8.10;4.28;;;;;;;26.15;48.12;99409.19;5011295;28;20056;-62
2023/07/02 09:49:35;;;;;;;10.32;4.47;;;;;;;26.17;48.14;99412.56;5023157;28;20099;-63
2023/07/02 09:52:06;;;;;;;7.03;4.30;;;;;;;26.17;48.37;99406.25;5030786;28;20101;-63
2023/07/02 09:54:35;;;;;;;7.50;4.28;;;;;;;26.18;47.93;99422.44;5030818;28;20141;-63
2023/07/02 09:57:04;;;;;;;8.75;4.50;;;;;;;26.19;48.10;99407.72;5028864;28;20053;-61
2023/07/02 09:59:32;;;;;;;6.38;4.32;;;;;;;26.20;47.44;99414.00;5030004;28;20045;-61
2023/07/02 10:02:01;;;;;;;7.65;4.40;;;;;;;26.20;46.58;99414.84;5030312;28;20056;-62
2023/07/02 10:04:41;;;;;;;8.05;5.13;;;;;;;26.22;46.27;99407.25;5030338;28;20455;-63
2023/07/02 10:07:11;;;;;;;9.63;5.10;;;;;;;26.24;46.30;99402.41;5030330;28;20049;-62
2023/07/02 10:09:41;;;;;;;6.80;4.60;;;;;;;26.27;46.25;99412.09;5029740;28;20051;-64
2023/07/02 10:12:19;;;;;;;7.25;4.28;;;;;;;26.30;46.27;99403.47;5030310;28;20049;-66
2023/07/02 10:14:49;;;;;;;8.07;4.57;;;;;;;26.31;46.54;99413.34;5028230;28;20056;-65
2023/07/02 10:17:28;;;;;;;7.53;4.50;;;;;;;26.37;46.22;99414.41;5010702;28;20133;-68
2023/07/02 10:19:59;;;;;;;7.00;4.45;;;;;;;26.40;46.75;99414.00;5010475;28;20054;-64
2023/07/02 10:22:29;;;;;;;6.13;4.18;;;;;;;26.41;45.63;99411.03;5010309;28;20415;-66
2023/07/02 10:25:00;;;;;;;7.38;4.40;;;;;;;26.43;45.37;99419.03;5010672;28;20384;-65
2023/07/02 10:27:36;;;;;;;7.22;4.60;;;;;;;26.44;44.98;99421.56;5012309;28;20046;-67
2023/07/02 10:30:08;;;;;;;8.25;4.50;;;;;;;26.44;44.20;99416.09;5013994;28;20526;-65
2023/07/02 10:32:37;;;;;;;6.97;4.20;;;;;;;26.46;44.43;99410.41;5017319;28;20116;-64
2023/07/02 10:35:15;;;;;;;9.60;4.35;;;;;;;26.46;44.51;99405.78;5018441;28;20049;-66
2023/07/02 10:37:44;;;;;;;7.72;4.63;;;;;;;26.47;44.41;99399.25;5033134;28;20050;-67
2023/07/02 10:40:14;;;;;;;8.52;4.18;;;;;;;26.49;44.87;99410.81;5020179;28;20112;-62
2023/07/02 10:42:47;;;;;;;5.15;3.83;;;;;;;26.53;44.85;99405.72;5029422;28;20045;-66
2023/07/02 10:45:15;;;;;;;7.47;3.95;;;;;;;26.55;45.03;99400.06;5019052;28;20100;-65
2023/07/02 10:47:44;;;;;;;10.27;4.20;;;;;;;26.56;44.82;99397.13;5024079;28;20050;-65
2023/07/02 10:50:17;;;;;;;6.25;4.15;;;;;;;26.58;45.12;99399.63;5026584;28;20041;-66
2023/07/02 10:52:47;;;;;;;6.82;3.72;;;;;;;26.60;45.43;99403.81;5025485;28;20049;-66
2023/07/02 10:55:19;;;;;;;5.75;3.60;;;;;;;26.64;45.47;99402.34;5023606;28;20562;-65
2023/07/02 10:57:48;;;;;;;7.20;3.75;;;;;;;26.65;45.23;99395.81;5022953;28;20056;-66
2023/07/02 11:00:16;;;;;;;6.03;3.90;;;;;;;26.67;45.33;99396.44;5027851;28;20042;-66
2023/07/02 11:02:45;;;;;;;7.80;4.00;;;;;;;26.68;45.15;99389.06;5022810;28;20049;-64
2023/07/02 11:05:14;;;;;;;5.88;3.65;;;;;;;26.70;45.67;99386.94;5027501;28;20092;-61
2023/07/02 11:07:43;;;;;;;6.35;3.78;;;;;;;26.72;46.10;99395.78;5021977;28;20140;-61
2023/07/02 11:10:20;;;;;;;7.55;4.07;;;;;;;26.77;46.38;99394.06;5019522;28;20049;-61
2023/07/02 11:12:48;;;;;;;6.55;3.72;;;;;;;26.81;46.47;99384.34;5029114;28;20057;-62
2023/07/02 11:15:18;;;;;;;6.70;3.90;;;;;;;26.86;46.01;99399.28;5012832;28;20046;-62
2023/07/02 11:17:46;;;;;;;7.82;4.13;;;;;;;26.89;46.02;99379.69;5022069;28;20534;-63
2023/07/02 11:20:16;;;;;;;7.80;3.70;;;;;;;26.92;46.40;99392.94;5019298;28;20054;-63
2023/07/02 11:22:44;;;;;;;8.02;4.07;;;;;;;26.95;46.05;99384.31;5028421;28;20486;-62
2023/07/02 11:25:15;;;;;;;5.85;3.50;;;;;;;26.98;46.04;99390.16;5017277;28;20186;-62
2023/07/02 11:27:44;;;;;;;5.80;3.50;;;;;;;27.01;45.30;99386.97;5032460;28;20057;-62
2023/07/02 11:30:13;;;;;;;6.25;3.95;;;;;;;27.04;45.55;99383.84;5019047;28;20145;-62
2023/07/02 11:32:52;;;;;;;6.75;3.88;;;;;;;27.07;44.81;99377.94;5028878;28;20054;-62
2023/07/02 11:35:21;;;;;;;7.75;4.07;;;;;;;27.11;45.30;99389.28;5018429;28;20045;-61
2023/07/02 11:37:50;;;;;;;6.65;4.10;;;;;;;27.13;44.37;99392.66;5022052;28;20068;-61
2023/07/02 11:40:26;;;;;;;9.65;4.32;;;;;;;27.20;43.80;99398.91;5026372;28;20049;-63